sensor_id;sensor_type;location;lat;lon;timestamp;temperature;humidity
9446;DHT22;4761;49.490;10.908;2022-10-22T00:02:18;20.00;62.30
9446;DHT22;4761;49.490;10.908;2022-10-22T00:04:50;20.00;62.30
9446;DHT22;4761;49.490;10.908;2022-10-22T00:07:17;20.00;62.20
9446;DHT22;4761;49.490;10.908;2022-10-22T00:09:43;20.00;62.30
9446;DHT22;4761;49.490;10.908;2022-10-22T00:12:09;20.00;62.30
9446;DHT22;4761;49.490;10.908;2022-10-22T00:14:36;20.00;62.20
9446;DHT22;4761;49.490;10.908;2022-10-22T00:17:02;20.00;62.20
9446;DHT22;4761;49.490;10.908;2022-10-22T00:19:27;20.00;62.20
9446;DHT22;4761;49.490;10.908;2022-10-22T00:21:53;20.00;62.30
9446;DHT22;4761;49.490;10.908;2022-10-22T00:24:19;20.00;62.20
9446;DHT22;4761;49.490;10.908;2022-10-22T00:26:44;20.00;62.20
9446;DHT22;4761;49.490;10.908;2022-10-22T00:29:10;20.00;62.20
9446;DHT22;4761;49.490;10.908;2022-10-22T00:31:35;20.00;62.20
9446;DHT22;4761;49.490;10.908;2022-10-22T00:34:01;20.00;62.20
9446;DHT22;4761;49.490;10.908;2022-10-22T00:36:27;20.00;62.20
9446;DHT22;4761;49.490;10.908;2022-10-22T00:38:52;20.00;62.20
9446;DHT22;4761;49.490;10.908;2022-10-22T00:41:18;20.00;62.20
9446;DHT22;4761;49.490;10.908;2022-10-22T00:44:02;20.00;62.10
9446;DHT22;4761;49.490;10.908;2022-10-22T00:46:28;20.00;62.10
9446;DHT22;4761;49.490;10.908;2022-10-22T00:48:55;20.00;62.10
9446;DHT22;4761;49.490;10.908;2022-10-22T00:51:25;20.10;62.00
9446;DHT22;4761;49.490;10.908;2022-10-22T00:53:55;20.10;61.80
9446;DHT22;4761;49.490;10.908;2022-10-22T00:56:24;20.10;61.80
9446;DHT22;4761;49.490;10.908;2022-10-22T00:58:54;20.20;61.90
9446;DHT22;4761;49.490;10.908;2022-10-22T01:01:23;20.20;62.10
9446;DHT22;4761;49.490;10.908;2022-10-22T01:03:50;20.20;62.20
9446;DHT22;4761;49.490;10.908;2022-10-22T01:06:24;20.10;62.20
9446;DHT22;4761;49.490;10.908;2022-10-22T01:09:05;20.10;62.30
9446;DHT22;4761;49.490;10.908;2022-10-22T01:11:51;20.10;62.40
9446;DHT22;4761;49.490;10.908;2022-10-22T01:17:09;20.10;62.60
9446;DHT22;4761;49.490;10.908;2022-10-22T01:22:43;20.10;63.10
9446;DHT22;4761;49.490;10.908;2022-10-22T01:25:27;20.10;62.80
9446;DHT22;4761;49.490;10.908;2022-10-22T01:28:16;20.10;62.90
9446;DHT22;4761;49.490;10.908;2022-10-22T01:30:44;20.10;63.00
9446;DHT22;4761;49.490;10.908;2022-10-22T01:33:13;20.10;63.00
9446;DHT22;4761;49.490;10.908;2022-10-22T01:35:42;20.10;63.10
9446;DHT22;4761;49.490;10.908;2022-10-22T01:38:12;20.10;63.10
9446;DHT22;4761;49.490;10.908;2022-10-22T01:40:39;20.10;63.10
9446;DHT22;4761;49.490;10.908;2022-10-22T01:43:06;20.10;63.10
9446;DHT22;4761;49.490;10.908;2022-10-22T01:45:36;20.10;63.10
9446;DHT22;4761;49.490;10.908;2022-10-22T01:48:19;20.10;63.10
9446;DHT22;4761;49.490;10.908;2022-10-22T01:51:19;20.10;63.10
9446;DHT22;4761;49.490;10.908;2022-10-22T02:02:17;20.10;63.30
9446;DHT22;4761;49.490;10.908;2022-10-22T02:05:09;20.10;63.30
9446;DHT22;4761;49.490;10.908;2022-10-22T02:07:46;20.10;63.30
9446;DHT22;4761;49.490;10.908;2022-10-22T02:10:13;20.10;63.30
9446;DHT22;4761;49.490;10.908;2022-10-22T02:12:42;20.10;63.30
9446;DHT22;4761;49.490;10.908;2022-10-22T02:15:09;20.10;63.20
9446;DHT22;4761;49.490;10.908;2022-10-22T02:17:37;20.10;63.20
9446;DHT22;4761;49.490;10.908;2022-10-22T02:20:26;20.10;64.00
9446;DHT22;4761;49.490;10.908;2022-10-22T02:22:52;20.10;63.10
9446;DHT22;4761;49.490;10.908;2022-10-22T02:25:21;20.10;63.10
9446;DHT22;4761;49.490;10.908;2022-10-22T02:27:53;20.10;63.10
9446;DHT22;4761;49.490;10.908;2022-10-22T02:30:22;20.10;63.10
9446;DHT22;4761;49.490;10.908;2022-10-22T02:32:59;20.10;63.10
9446;DHT22;4761;49.490;10.908;2022-10-22T02:35:28;20.10;63.00
9446;DHT22;4761;49.490;10.908;2022-10-22T02:37:56;20.10;63.10
9446;DHT22;4761;49.490;10.908;2022-10-22T02:40:23;20.10;63.10
9446;DHT22;4761;49.490;10.908;2022-10-22T02:42:49;20.10;63.00
9446;DHT22;4761;49.490;10.908;2022-10-22T02:45:16;20.10;63.00
9446;DHT22;4761;49.490;10.908;2022-10-22T02:47:43;20.10;63.00
9446;DHT22;4761;49.490;10.908;2022-10-22T02:50:08;20.10;63.00
9446;DHT22;4761;49.490;10.908;2022-10-22T02:52:34;20.10;62.90
9446;DHT22;4761;49.490;10.908;2022-10-22T02:54:59;20.10;62.90
9446;DHT22;4761;49.490;10.908;2022-10-22T02:57:25;20.10;62.80
9446;DHT22;4761;49.490;10.908;2022-10-22T02:59:50;20.10;62.80
9446;DHT22;4761;49.490;10.908;2022-10-22T03:02:16;20.10;62.70
9446;DHT22;4761;49.490;10.908;2022-10-22T03:04:41;20.00;62.60
9446;DHT22;4761;49.490;10.908;2022-10-22T03:07:07;20.10;62.70
9446;DHT22;4761;49.490;10.908;2022-10-22T03:09:32;20.00;62.60
9446;DHT22;4761;49.490;10.908;2022-10-22T03:11:58;20.00;62.50
9446;DHT22;4761;49.490;10.908;2022-10-22T03:14:24;20.00;62.50
9446;DHT22;4761;49.490;10.908;2022-10-22T03:16:49;20.00;62.60
9446;DHT22;4761;49.490;10.908;2022-10-22T03:19:15;20.00;62.50
9446;DHT22;4761;49.490;10.908;2022-10-22T03:21:54;20.00;62.40
9446;DHT22;4761;49.490;10.908;2022-10-22T03:24:23;20.00;62.40
9446;DHT22;4761;49.490;10.908;2022-10-22T03:26:50;20.00;62.50
9446;DHT22;4761;49.490;10.908;2022-10-22T03:29:18;20.00;62.50
9446;DHT22;4761;49.490;10.908;2022-10-22T03:31:45;20.00;62.40
9446;DHT22;4761;49.490;10.908;2022-10-22T03:34:11;20.00;62.30
9446;DHT22;4761;49.490;10.908;2022-10-22T03:36:38;20.00;62.30
9446;DHT22;4761;49.490;10.908;2022-10-22T03:39:04;20.00;62.30
9446;DHT22;4761;49.490;10.908;2022-10-22T03:41:30;20.00;62.30
9446;DHT22;4761;49.490;10.908;2022-10-22T03:43:56;20.10;62.30
9446;DHT22;4761;49.490;10.908;2022-10-22T03:46:22;20.10;62.30
9446;DHT22;4761;49.490;10.908;2022-10-22T03:48:48;20.10;62.20
9446;DHT22;4761;49.490;10.908;2022-10-22T03:51:13;20.10;62.30
9446;DHT22;4761;49.490;10.908;2022-10-22T03:53:39;20.00;62.10
9446;DHT22;4761;49.490;10.908;2022-10-22T03:56:08;20.10;62.30
9446;DHT22;4761;49.490;10.908;2022-10-22T03:58:35;20.00;62.20
9446;DHT22;4761;49.490;10.908;2022-10-22T04:01:09;20.00;62.20
9446;DHT22;4761;49.490;10.908;2022-10-22T04:03:35;20.00;62.30
9446;DHT22;4761;49.490;10.908;2022-10-22T04:06:09;20.00;62.20
9446;DHT22;4761;49.490;10.908;2022-10-22T04:08:38;20.00;62.20
9446;DHT22;4761;49.490;10.908;2022-10-22T04:11:04;20.00;62.20
9446;DHT22;4761;49.490;10.908;2022-10-22T04:13:29;20.00;62.20
9446;DHT22;4761;49.490;10.908;2022-10-22T04:15:55;20.00;62.20
9446;DHT22;4761;49.490;10.908;2022-10-22T04:18:22;20.00;62.20
9446;DHT22;4761;49.490;10.908;2022-10-22T04:20:50;20.00;62.20
9446;DHT22;4761;49.490;10.908;2022-10-22T04:23:16;20.00;62.10
9446;DHT22;4761;49.490;10.908;2022-10-22T04:25:41;20.00;62.10
9446;DHT22;4761;49.490;10.908;2022-10-22T04:28:07;20.00;62.10
9446;DHT22;4761;49.490;10.908;2022-10-22T04:30:34;20.00;62.00
9446;DHT22;4761;49.490;10.908;2022-10-22T04:33:00;20.00;62.00
9446;DHT22;4761;49.490;10.908;2022-10-22T04:35:25;20.00;62.00
9446;DHT22;4761;49.490;10.908;2022-10-22T04:37:51;20.00;62.00
9446;DHT22;4761;49.490;10.908;2022-10-22T04:40:16;20.00;62.00
9446;DHT22;4761;49.490;10.908;2022-10-22T04:42:42;20.00;61.90
9446;DHT22;4761;49.490;10.908;2022-10-22T04:45:08;20.00;61.90
9446;DHT22;4761;49.490;10.908;2022-10-22T04:47:33;20.00;62.00
9446;DHT22;4761;49.490;10.908;2022-10-22T04:49:59;20.00;61.90
9446;DHT22;4761;49.490;10.908;2022-10-22T04:52:24;20.00;61.90
9446;DHT22;4761;49.490;10.908;2022-10-22T04:54:50;20.00;61.90
9446;DHT22;4761;49.490;10.908;2022-10-22T04:57:15;19.90;61.80
9446;DHT22;4761;49.490;10.908;2022-10-22T04:59:41;20.00;61.80
9446;DHT22;4761;49.490;10.908;2022-10-22T05:02:06;20.00;61.70
9446;DHT22;4761;49.490;10.908;2022-10-22T05:04:32;20.00;61.80
9446;DHT22;4761;49.490;10.908;2022-10-22T05:06:57;20.00;61.60
9446;DHT22;4761;49.490;10.908;2022-10-22T05:09:23;20.00;61.60
9446;DHT22;4761;49.490;10.908;2022-10-22T05:11:50;19.90;61.50
9446;DHT22;4761;49.490;10.908;2022-10-22T05:14:19;19.90;61.50
9446;DHT22;4761;49.490;10.908;2022-10-22T05:16:45;19.90;61.50
9446;DHT22;4761;49.490;10.908;2022-10-22T05:19:21;20.00;61.60
9446;DHT22;4761;49.490;10.908;2022-10-22T05:21:49;20.00;61.50
9446;DHT22;4761;49.490;10.908;2022-10-22T05:24:14;19.90;61.40
9446;DHT22;4761;49.490;10.908;2022-10-22T05:26:40;19.90;62.10
9446;DHT22;4761;49.490;10.908;2022-10-22T05:29:06;19.90;61.40
9446;DHT22;4761;49.490;10.908;2022-10-22T05:31:31;19.90;61.40
9446;DHT22;4761;49.490;10.908;2022-10-22T05:33:57;19.90;61.40
9446;DHT22;4761;49.490;10.908;2022-10-22T05:36:23;19.90;61.30
9446;DHT22;4761;49.490;10.908;2022-10-22T05:38:49;19.90;61.20
9446;DHT22;4761;49.490;10.908;2022-10-22T05:41:17;19.90;61.10
9446;DHT22;4761;49.490;10.908;2022-10-22T05:43:43;19.90;61.10
9446;DHT22;4761;49.490;10.908;2022-10-22T05:46:17;19.90;61.00
9446;DHT22;4761;49.490;10.908;2022-10-22T05:48:43;19.90;61.00
9446;DHT22;4761;49.490;10.908;2022-10-22T05:51:11;19.90;61.00
9446;DHT22;4761;49.490;10.908;2022-10-22T05:53:39;19.90;60.90
9446;DHT22;4761;49.490;10.908;2022-10-22T05:56:07;19.90;60.90
9446;DHT22;4761;49.490;10.908;2022-10-22T05:58:33;19.80;60.80
9446;DHT22;4761;49.490;10.908;2022-10-22T06:01:20;19.80;60.70
9446;DHT22;4761;49.490;10.908;2022-10-22T06:03:46;19.80;60.70
9446;DHT22;4761;49.490;10.908;2022-10-22T06:11:39;19.90;60.90
9446;DHT22;4761;49.490;10.908;2022-10-22T06:14:05;19.90;60.80
9446;DHT22;4761;49.490;10.908;2022-10-22T06:16:31;19.90;60.90
9446;DHT22;4761;49.490;10.908;2022-10-22T06:18:58;19.80;60.80
9446;DHT22;4761;49.490;10.908;2022-10-22T06:21:24;19.90;60.90
9446;DHT22;4761;49.490;10.908;2022-10-22T06:23:50;19.90;60.90
9446;DHT22;4761;49.490;10.908;2022-10-22T06:26:15;19.90;61.60
9446;DHT22;4761;49.490;10.908;2022-10-22T06:28:42;19.90;60.90
9446;DHT22;4761;49.490;10.908;2022-10-22T06:31:08;19.90;60.90
9446;DHT22;4761;49.490;10.908;2022-10-22T06:33:34;19.90;60.80
9446;DHT22;4761;49.490;10.908;2022-10-22T06:36:11;19.90;60.70
9446;DHT22;4761;49.490;10.908;2022-10-22T06:38:37;19.90;60.70
9446;DHT22;4761;49.490;10.908;2022-10-22T06:41:09;19.90;61.30
9446;DHT22;4761;49.490;10.908;2022-10-22T06:43:35;20.00;60.60
9446;DHT22;4761;49.490;10.908;2022-10-22T06:46:02;19.90;60.50
9446;DHT22;4761;49.490;10.908;2022-10-22T06:48:28;19.90;60.50
9446;DHT22;4761;49.490;10.908;2022-10-22T06:50:54;19.90;60.50
9446;DHT22;4761;49.490;10.908;2022-10-22T06:53:20;19.90;61.30
9446;DHT22;4761;49.490;10.908;2022-10-22T06:55:45;19.90;60.60
9446;DHT22;4761;49.490;10.908;2022-10-22T06:58:11;19.90;60.60
9446;DHT22;4761;49.490;10.908;2022-10-22T07:00:36;19.90;60.60
9446;DHT22;4761;49.490;10.908;2022-10-22T07:03:02;19.90;60.70
9446;DHT22;4761;49.490;10.908;2022-10-22T07:05:27;19.90;60.70
9446;DHT22;4761;49.490;10.908;2022-10-22T07:07:53;19.90;60.70
9446;DHT22;4761;49.490;10.908;2022-10-22T07:10:18;19.90;60.70
9446;DHT22;4761;49.490;10.908;2022-10-22T07:12:44;19.90;60.70
9446;DHT22;4761;49.490;10.908;2022-10-22T07:15:09;19.90;60.70
9446;DHT22;4761;49.490;10.908;2022-10-22T07:17:35;19.80;60.60
9446;DHT22;4761;49.490;10.908;2022-10-22T07:20:01;19.70;60.80
9446;DHT22;4761;49.490;10.908;2022-10-22T07:22:26;19.70;61.30
9446;DHT22;4761;49.490;10.908;2022-10-22T07:24:52;19.70;61.50
9446;DHT22;4761;49.490;10.908;2022-10-22T07:27:17;19.70;61.60
9446;DHT22;4761;49.490;10.908;2022-10-22T07:29:43;19.80;61.70
9446;DHT22;4761;49.490;10.908;2022-10-22T07:32:08;19.80;61.60
9446;DHT22;4761;49.490;10.908;2022-10-22T07:34:34;19.90;61.60
9446;DHT22;4761;49.490;10.908;2022-10-22T07:36:59;19.90;61.50
9446;DHT22;4761;49.490;10.908;2022-10-22T07:39:25;20.00;61.50
9446;DHT22;4761;49.490;10.908;2022-10-22T07:41:51;20.10;61.30
9446;DHT22;4761;49.490;10.908;2022-10-22T07:44:16;20.10;61.20
9446;DHT22;4761;49.490;10.908;2022-10-22T07:46:42;20.20;61.10
9446;DHT22;4761;49.490;10.908;2022-10-22T07:49:07;20.20;60.90
9446;DHT22;4761;49.490;10.908;2022-10-22T07:51:33;20.20;60.80
9446;DHT22;4761;49.490;10.908;2022-10-22T07:53:58;20.30;60.80
9446;DHT22;4761;49.490;10.908;2022-10-22T07:56:24;20.30;60.70
9446;DHT22;4761;49.490;10.908;2022-10-22T07:58:49;20.40;60.60
9446;DHT22;4761;49.490;10.908;2022-10-22T08:01:15;20.40;60.60
9446;DHT22;4761;49.490;10.908;2022-10-22T08:03:41;20.50;60.50
9446;DHT22;4761;49.490;10.908;2022-10-22T08:06:07;20.70;60.40
9446;DHT22;4761;49.490;10.908;2022-10-22T08:08:33;20.60;60.30
9446;DHT22;4761;49.490;10.908;2022-10-22T08:11:00;20.50;60.60
9446;DHT22;4761;49.490;10.908;2022-10-22T08:13:26;20.50;61.10
9446;DHT22;4761;49.490;10.908;2022-10-22T08:15:52;20.40;61.50
9446;DHT22;4761;49.490;10.908;2022-10-22T08:18:18;20.30;61.70
9446;DHT22;4761;49.490;10.908;2022-10-22T08:20:43;20.30;61.90
9446;DHT22;4761;49.490;10.908;2022-10-22T08:23:09;20.30;62.70
9446;DHT22;4761;49.490;10.908;2022-10-22T08:25:35;20.20;62.20
9446;DHT22;4761;49.490;10.908;2022-10-22T08:28:00;20.20;62.50
9446;DHT22;4761;49.490;10.908;2022-10-22T08:30:26;20.20;62.90
9446;DHT22;4761;49.490;10.908;2022-10-22T08:32:54;20.20;63.20
9446;DHT22;4761;49.490;10.908;2022-10-22T08:35:20;20.20;63.60
9446;DHT22;4761;49.490;10.908;2022-10-22T08:37:46;20.20;63.70
9446;DHT22;4761;49.490;10.908;2022-10-22T08:40:31;20.20;63.80
9446;DHT22;4761;49.490;10.908;2022-10-22T08:46:16;20.20;63.90
9446;DHT22;4761;49.490;10.908;2022-10-22T08:48:52;20.20;64.10
9446;DHT22;4761;49.490;10.908;2022-10-22T08:51:21;20.20;64.10
9446;DHT22;4761;49.490;10.908;2022-10-22T08:56:49;20.30;64.20
9446;DHT22;4761;49.490;10.908;2022-10-22T08:59:45;20.30;64.20
9446;DHT22;4761;49.490;10.908;2022-10-22T09:02:27;20.30;64.20
9446;DHT22;4761;49.490;10.908;2022-10-22T09:05:04;20.40;64.30
9446;DHT22;4761;49.490;10.908;2022-10-22T09:07:42;20.40;64.20
9446;DHT22;4761;49.490;10.908;2022-10-22T09:10:10;20.40;64.20
9446;DHT22;4761;49.490;10.908;2022-10-22T09:12:37;20.40;64.20
9446;DHT22;4761;49.490;10.908;2022-10-22T09:15:02;20.40;64.30
9446;DHT22;4761;49.490;10.908;2022-10-22T09:17:34;20.40;64.20
9446;DHT22;4761;49.490;10.908;2022-10-22T09:20:19;20.40;64.20
9446;DHT22;4761;49.490;10.908;2022-10-22T09:22:57;20.40;64.10
9446;DHT22;4761;49.490;10.908;2022-10-22T09:25:30;20.40;64.10
9446;DHT22;4761;49.490;10.908;2022-10-22T09:27:57;20.40;64.20
9446;DHT22;4761;49.490;10.908;2022-10-22T09:30:25;20.40;64.40
9446;DHT22;4761;49.490;10.908;2022-10-22T09:33:16;20.40;64.30
9446;DHT22;4761;49.490;10.908;2022-10-22T09:35:52;20.50;64.40
9446;DHT22;4761;49.490;10.908;2022-10-22T09:38:22;20.50;64.30
9446;DHT22;4761;49.490;10.908;2022-10-22T09:40:54;20.50;64.30
9446;DHT22;4761;49.490;10.908;2022-10-22T09:43:20;20.50;64.00
9446;DHT22;4761;49.490;10.908;2022-10-22T09:45:47;20.50;64.00
9446;DHT22;4761;49.490;10.908;2022-10-22T09:48:21;20.50;63.90
9446;DHT22;4761;49.490;10.908;2022-10-22T09:50:59;20.50;63.90
9446;DHT22;4761;49.490;10.908;2022-10-22T09:53:35;20.50;63.90
9446;DHT22;4761;49.490;10.908;2022-10-22T09:56:15;20.50;63.80
9446;DHT22;4761;49.490;10.908;2022-10-22T09:58:44;20.50;63.70
9446;DHT22;4761;49.490;10.908;2022-10-22T10:01:21;20.60;63.80
9446;DHT22;4761;49.490;10.908;2022-10-22T10:03:48;20.60;63.80
9446;DHT22;4761;49.490;10.908;2022-10-22T10:06:18;20.60;63.70
9446;DHT22;4761;49.490;10.908;2022-10-22T10:08:44;20.60;63.60
9446;DHT22;4761;49.490;10.908;2022-10-22T10:11:22;20.60;63.50
9446;DHT22;4761;49.490;10.908;2022-10-22T10:16:29;20.60;63.60
9446;DHT22;4761;49.490;10.908;2022-10-22T10:19:25;20.50;63.50
9446;DHT22;4761;49.490;10.908;2022-10-22T10:27:27;20.60;63.70
9446;DHT22;4761;49.490;10.908;2022-10-22T10:35:26;20.60;63.80
9446;DHT22;4761;49.490;10.908;2022-10-22T10:43:24;20.70;63.70
9446;DHT22;4761;49.490;10.908;2022-10-22T10:48:49;20.70;63.60
9446;DHT22;4761;49.490;10.908;2022-10-22T10:54:26;20.70;63.50
9446;DHT22;4761;49.490;10.908;2022-10-22T10:57:01;20.70;63.60
9446;DHT22;4761;49.490;10.908;2022-10-22T11:02:29;20.70;63.40
9446;DHT22;4761;49.490;10.908;2022-10-22T11:07:48;20.80;63.30
9446;DHT22;4761;49.490;10.908;2022-10-22T11:10:45;20.80;63.40
9446;DHT22;4761;49.490;10.908;2022-10-22T11:13:59;20.80;63.10
9446;DHT22;4761;49.490;10.908;2022-10-22T11:16:22;20.80;62.80
9446;DHT22;4761;49.490;10.908;2022-10-22T11:19:10;20.90;62.80
9446;DHT22;4761;49.490;10.908;2022-10-22T11:21:49;20.90;62.80
9446;DHT22;4761;49.490;10.908;2022-10-22T11:26:54;20.90;62.80
9446;DHT22;4761;49.490;10.908;2022-10-22T11:29:29;20.90;62.70
9446;DHT22;4761;49.490;10.908;2022-10-22T11:31:56;20.90;62.80
9446;DHT22;4761;49.490;10.908;2022-10-22T11:34:44;20.90;62.70
9446;DHT22;4761;49.490;10.908;2022-10-22T11:37:12;20.90;62.60
9446;DHT22;4761;49.490;10.908;2022-10-22T11:39:48;20.90;62.60
9446;DHT22;4761;49.490;10.908;2022-10-22T11:42:20;20.90;62.60
9446;DHT22;4761;49.490;10.908;2022-10-22T11:50:26;20.90;62.60
9446;DHT22;4761;49.490;10.908;2022-10-22T11:53:03;20.90;62.50
9446;DHT22;4761;49.490;10.908;2022-10-22T11:58:00;20.90;62.50
9446;DHT22;4761;49.490;10.908;2022-10-22T12:00:36;20.80;62.40
9446;DHT22;4761;49.490;10.908;2022-10-22T12:03:16;20.80;62.30
9446;DHT22;4761;49.490;10.908;2022-10-22T12:05:44;20.90;62.50
9446;DHT22;4761;49.490;10.908;2022-10-22T12:08:21;20.90;62.40
9446;DHT22;4761;49.490;10.908;2022-10-22T12:10:57;20.90;62.40
9446;DHT22;4761;49.490;10.908;2022-10-22T12:13:30;20.90;62.50
9446;DHT22;4761;49.490;10.908;2022-10-22T12:15:58;20.90;62.50
9446;DHT22;4761;49.490;10.908;2022-10-22T12:18:31;20.90;62.40
9446;DHT22;4761;49.490;10.908;2022-10-22T12:20:57;20.90;62.20
9446;DHT22;4761;49.490;10.908;2022-10-22T12:23:30;20.90;62.20
9446;DHT22;4761;49.490;10.908;2022-10-22T12:25:56;20.90;62.20
9446;DHT22;4761;49.490;10.908;2022-10-22T12:28:21;21.00;62.30
9446;DHT22;4761;49.490;10.908;2022-10-22T12:30:47;21.00;62.30
9446;DHT22;4761;49.490;10.908;2022-10-22T12:33:19;21.00;62.30
9446;DHT22;4761;49.490;10.908;2022-10-22T12:35:46;21.00;62.20
9446;DHT22;4761;49.490;10.908;2022-10-22T12:38:20;21.00;62.10
9446;DHT22;4761;49.490;10.908;2022-10-22T12:40:46;21.00;62.00
9446;DHT22;4761;49.490;10.908;2022-10-22T12:43:15;21.00;61.90
9446;DHT22;4761;49.490;10.908;2022-10-22T12:45:43;21.00;61.90
9446;DHT22;4761;49.490;10.908;2022-10-22T12:48:40;21.00;61.80
9446;DHT22;4761;49.490;10.908;2022-10-22T12:51:07;21.00;61.80
9446;DHT22;4761;49.490;10.908;2022-10-22T12:53:36;21.00;61.80
9446;DHT22;4761;49.490;10.908;2022-10-22T12:56:12;21.00;61.80
9446;DHT22;4761;49.490;10.908;2022-10-22T12:58:45;21.00;61.90
9446;DHT22;4761;49.490;10.908;2022-10-22T13:01:12;21.00;61.90
9446;DHT22;4761;49.490;10.908;2022-10-22T13:03:43;21.00;61.90
9446;DHT22;4761;49.490;10.908;2022-10-22T13:06:22;20.90;61.80
9446;DHT22;4761;49.490;10.908;2022-10-22T13:11:40;20.90;61.80
9446;DHT22;4761;49.490;10.908;2022-10-22T13:14:21;21.00;61.90
9446;DHT22;4761;49.490;10.908;2022-10-22T13:17:38;20.90;61.90
9446;DHT22;4761;49.490;10.908;2022-10-22T13:20:16;21.00;62.00
9446;DHT22;4761;49.490;10.908;2022-10-22T13:22:54;20.90;61.90
9446;DHT22;4761;49.490;10.908;2022-10-22T13:25:26;21.00;61.90
9446;DHT22;4761;49.490;10.908;2022-10-22T13:27:57;21.00;61.90
9446;DHT22;4761;49.490;10.908;2022-10-22T13:30:26;21.00;61.90
9446;DHT22;4761;49.490;10.908;2022-10-22T13:33:00;21.00;61.90
9446;DHT22;4761;49.490;10.908;2022-10-22T13:35:35;21.00;62.00
9446;DHT22;4761;49.490;10.908;2022-10-22T13:38:02;21.10;61.70
9446;DHT22;4761;49.490;10.908;2022-10-22T13:40:27;21.10;61.50
9446;DHT22;4761;49.490;10.908;2022-10-22T13:42:53;21.10;61.50
9446;DHT22;4761;49.490;10.908;2022-10-22T13:45:19;21.10;61.40
9446;DHT22;4761;49.490;10.908;2022-10-22T13:47:51;21.10;61.30
9446;DHT22;4761;49.490;10.908;2022-10-22T13:50:19;21.10;61.20
9446;DHT22;4761;49.490;10.908;2022-10-22T13:52:49;21.10;61.10
9446;DHT22;4761;49.490;10.908;2022-10-22T13:55:23;21.10;60.90
9446;DHT22;4761;49.490;10.908;2022-10-22T13:57:51;21.10;60.90
9446;DHT22;4761;49.490;10.908;2022-10-22T14:00:20;21.10;60.90
9446;DHT22;4761;49.490;10.908;2022-10-22T14:02:49;21.20;61.00
9446;DHT22;4761;49.490;10.908;2022-10-22T14:05:17;21.10;60.90
9446;DHT22;4761;49.490;10.908;2022-10-22T14:07:43;21.10;60.90
9446;DHT22;4761;49.490;10.908;2022-10-22T14:10:23;21.20;61.00
9446;DHT22;4761;49.490;10.908;2022-10-22T14:12:50;21.10;60.70
9446;DHT22;4761;49.490;10.908;2022-10-22T14:15:17;21.10;60.50
9446;DHT22;4761;49.490;10.908;2022-10-22T14:17:46;21.10;60.50
9446;DHT22;4761;49.490;10.908;2022-10-22T14:20:22;21.10;60.50
9446;DHT22;4761;49.490;10.908;2022-10-22T14:22:49;21.10;60.40
9446;DHT22;4761;49.490;10.908;2022-10-22T14:25:18;21.10;60.30
9446;DHT22;4761;49.490;10.908;2022-10-22T14:27:44;21.10;61.10
9446;DHT22;4761;49.490;10.908;2022-10-22T14:30:28;21.10;60.40
9446;DHT22;4761;49.490;10.908;2022-10-22T14:32:56;21.10;60.10
9446;DHT22;4761;49.490;10.908;2022-10-22T14:35:23;21.10;60.20
9446;DHT22;4761;49.490;10.908;2022-10-22T14:37:49;21.10;60.10
9446;DHT22;4761;49.490;10.908;2022-10-22T14:40:17;21.10;60.20
9446;DHT22;4761;49.490;10.908;2022-10-22T14:42:44;21.10;60.20
9446;DHT22;4761;49.490;10.908;2022-10-22T14:45:22;21.10;60.30
9446;DHT22;4761;49.490;10.908;2022-10-22T14:47:49;21.10;60.10
9446;DHT22;4761;49.490;10.908;2022-10-22T14:50:16;21.10;60.00
9446;DHT22;4761;49.490;10.908;2022-10-22T14:52:41;21.00;59.60
9446;DHT22;4761;49.490;10.908;2022-10-22T14:55:09;20.90;59.20
9446;DHT22;4761;49.490;10.908;2022-10-22T14:57:35;20.90;58.80
9446;DHT22;4761;49.490;10.908;2022-10-22T15:00:01;20.90;58.40
9446;DHT22;4761;49.490;10.908;2022-10-22T15:02:27;20.90;58.00
9446;DHT22;4761;49.490;10.908;2022-10-22T15:04:53;20.90;57.80
9446;DHT22;4761;49.490;10.908;2022-10-22T15:07:18;20.90;57.50
9446;DHT22;4761;49.490;10.908;2022-10-22T15:09:45;21.00;57.40
9446;DHT22;4761;49.490;10.908;2022-10-22T15:12:11;21.00;57.20
9446;DHT22;4761;49.490;10.908;2022-10-22T15:14:36;21.00;57.10
9446;DHT22;4761;49.490;10.908;2022-10-22T15:17:02;21.00;56.70
9446;DHT22;4761;49.490;10.908;2022-10-22T15:19:28;21.00;56.50
9446;DHT22;4761;49.490;10.908;2022-10-22T15:21:54;21.10;56.50
9446;DHT22;4761;49.490;10.908;2022-10-22T15:24:19;21.10;56.30
9446;DHT22;4761;49.490;10.908;2022-10-22T15:26:45;21.10;56.30
9446;DHT22;4761;49.490;10.908;2022-10-22T15:29:10;21.10;56.00
9446;DHT22;4761;49.490;10.908;2022-10-22T15:31:53;21.10;55.80
9446;DHT22;4761;49.490;10.908;2022-10-22T15:34:33;21.20;55.60
9446;DHT22;4761;49.490;10.908;2022-10-22T15:37:01;21.20;55.50
9446;DHT22;4761;49.490;10.908;2022-10-22T15:39:27;21.20;55.40
9446;DHT22;4761;49.490;10.908;2022-10-22T15:41:53;21.20;55.30
9446;DHT22;4761;49.490;10.908;2022-10-22T15:44:25;21.20;55.20
9446;DHT22;4761;49.490;10.908;2022-10-22T15:46:51;21.20;55.20
9446;DHT22;4761;49.490;10.908;2022-10-22T15:49:19;21.20;55.10
9446;DHT22;4761;49.490;10.908;2022-10-22T15:51:44;21.20;55.10
9446;DHT22;4761;49.490;10.908;2022-10-22T15:54:15;21.20;55.10
9446;DHT22;4761;49.490;10.908;2022-10-22T15:56:42;21.20;55.10
9446;DHT22;4761;49.490;10.908;2022-10-22T15:59:09;21.20;55.10
9446;DHT22;4761;49.490;10.908;2022-10-22T16:01:35;21.20;55.10
9446;DHT22;4761;49.490;10.908;2022-10-22T16:04:01;21.30;58.00
9446;DHT22;4761;49.490;10.908;2022-10-22T16:06:32;21.40;58.10
9446;DHT22;4761;49.490;10.908;2022-10-22T16:09:00;21.40;58.30
9446;DHT22;4761;49.490;10.908;2022-10-22T16:11:27;21.30;58.60
9446;DHT22;4761;49.490;10.908;2022-10-22T16:13:54;21.20;58.90
9446;DHT22;4761;49.490;10.908;2022-10-22T16:16:24;21.10;59.10
9446;DHT22;4761;49.490;10.908;2022-10-22T16:18:50;21.00;59.30
9446;DHT22;4761;49.490;10.908;2022-10-22T16:21:17;21.00;59.50
9446;DHT22;4761;49.490;10.908;2022-10-22T16:23:43;20.90;59.70
9446;DHT22;4761;49.490;10.908;2022-10-22T16:26:09;20.90;59.80
9446;DHT22;4761;49.490;10.908;2022-10-22T16:28:35;20.80;59.80
9446;DHT22;4761;49.490;10.908;2022-10-22T16:31:02;20.80;59.80
9446;DHT22;4761;49.490;10.908;2022-10-22T16:33:27;20.80;59.80
9446;DHT22;4761;49.490;10.908;2022-10-22T16:35:53;20.80;59.80
9446;DHT22;4761;49.490;10.908;2022-10-22T16:38:18;20.70;59.80
9446;DHT22;4761;49.490;10.908;2022-10-22T16:40:44;20.70;59.70
9446;DHT22;4761;49.490;10.908;2022-10-22T16:43:09;20.70;59.70
9446;DHT22;4761;49.490;10.908;2022-10-22T16:45:35;20.70;59.70
9446;DHT22;4761;49.490;10.908;2022-10-22T16:48:00;20.70;59.80
9446;DHT22;4761;49.490;10.908;2022-10-22T16:50:26;20.70;59.80
9446;DHT22;4761;49.490;10.908;2022-10-22T16:52:52;20.70;59.80
9446;DHT22;4761;49.490;10.908;2022-10-22T16:55:17;20.60;59.90
9446;DHT22;4761;49.490;10.908;2022-10-22T16:57:49;20.60;59.80
9446;DHT22;4761;49.490;10.908;2022-10-22T17:00:15;20.60;59.80
9446;DHT22;4761;49.490;10.908;2022-10-22T17:02:40;20.60;59.90
9446;DHT22;4761;49.490;10.908;2022-10-22T17:05:06;20.60;59.90
9446;DHT22;4761;49.490;10.908;2022-10-22T17:07:32;20.60;59.90
9446;DHT22;4761;49.490;10.908;2022-10-22T17:09:57;20.60;59.90